Time;durP1;ratioP1;P1;durP2;ratioP2;P2;SDS_P1;SDS_P2;PMS_P1;PMS_P2;Temp;Humidity;BMP_temperature;BMP_pressure;BME280_temperature;BME280_humidity;BME280_pressure;Samples;Min_cycle;Max_cycle;Signal;HPM_P1;HPM_P2
2024/01/15 00:02:07;;;;;;;39.05;21.52;;;;;;;;;;5067882;28;20024;-80
2024/01/15 00:04:40;;;;;;;34.88;20.08;;;;;;;;;;5068585;28;20030;-80
2024/01/15 00:07:06;;;;;;;37.65;20.20;;;;;;;;;;5067237;28;20106;-80
2024/01/15 00:09:32;;;;;;;37.90;21.10;;;;;;;;;;5068837;28;20027;-79
2024/01/15 00:11:59;;;;;;;39.85;21.45;;;;;;;;;;5069369;28;20029;-79
2024/01/15 00:14:25;;;;;;;39.15;20.88;;;;;;;;;;5068913;28;20064;-79
2024/01/15 00:16:51;;;;;;;36.38;21.02;;;;;;;;;;5068969;28;20548;-80
2024/01/15 00:19:18;;;;;;;32.90;20.55;;;;;;;;;;5067801;28;20100;-80
2024/01/15 00:21:45;;;;;;;37.08;20.45;;;;;;;;;;5049229;28;20495;-79
2024/01/15 00:24:12;;;;;;;37.00;21.45;;;;;;;;;;5049688;28;20036;-79
2024/01/15 00:26:38;;;;;;;34.97;22.17;;;;;;;;;;5061916;28;20046;-80
2024/01/15 00:29:04;;;;;;;40.80;20.70;;;;;;;;;;5068130;28;20435;-79
2024/01/15 00:31:30;;;;;;;40.13;22.40;;;;;;;;;;5069019;28;20028;-79
2024/01/15 00:33:57;;;;;;;38.17;21.55;;;;;;;;;;5069018;28;20033;-80
2024/01/15 00:36:23;;;;;;;36.35;21.05;;;;;;;;;;5067015;28;20024;-79
2024/01/15 00:38:49;;;;;;;36.20;20.73;;;;;;;;;;5048834;28;20025;-79
2024/01/15 00:41:15;;;;;;;38.75;20.88;;;;;;;;;;5048932;28;20021;-80
2024/01/15 00:43:42;;;;;;;36.15;21.35;;;;;;;;;;5049926;28;20025;-79
2024/01/15 00:46:08;;;;;;;40.33;22.02;;;;;;;;;;5049345;28;20053;-80
2024/01/15 00:48:34;;;;;;;36.00;21.85;;;;;;;;;;5048902;28;20025;-80
2024/01/15 00:51:00;;;;;;;39.42;22.77;;;;;;;;;;5048796;28;20040;-79
2024/01/15 00:53:26;;;;;;;39.35;22.30;;;;;;;;;;5049315;28;20025;-81
2024/01/15 00:55:52;;;;;;;38.10;22.13;;;;;;;;;;5048754;28;20032;-81
2024/01/15 00:58:19;;;;;;;37.38;22.23;;;;;;;;;;5048386;28;20033;-79
2024/01/15 01:00:45;;;;;;;39.47;23.35;;;;;;;;;;5063768;28;20059;-78
2024/01/15 01:03:11;;;;;;;37.80;22.63;;;;;;;;;;5061751;28;20067;-79
2024/01/15 01:05:37;;;;;;;39.90;22.25;;;;;;;;;;5068622;28;20059;-81
2024/01/15 01:08:03;;;;;;;36.33;22.08;;;;;;;;;;5068630;28;20339;-78
2024/01/15 01:10:30;;;;;;;39.90;23.67;;;;;;;;;;5067801;28;20404;-79
2024/01/15 01:12:56;;;;;;;41.95;23.50;;;;;;;;;;5065961;28;20025;-79
2024/01/15 01:15:22;;;;;;;43.17;23.92;;;;;;;;;;5067836;28;20075;-80
2024/01/15 01:17:48;;;;;;;37.92;21.25;;;;;;;;;;5068603;28;20027;-81
2024/01/15 01:20:15;;;;;;;41.60;21.90;;;;;;;;;;5068562;28;20024;-80
2024/01/15 01:22:41;;;;;;;38.13;22.17;;;;;;;;;;5069505;28;20419;-80
2024/01/15 01:25:07;;;;;;;40.50;22.95;;;;;;;;;;5067648;28;20456;-80
2024/01/15 01:27:33;;;;;;;41.00;23.00;;;;;;;;;;5065588;28;20104;-80
2024/01/15 01:29:59;;;;;;;41.65;22.42;;;;;;;;;;5067530;28;20052;-81
2024/01/15 01:32:25;;;;;;;38.95;21.70;;;;;;;;;;5068908;28;20495;-80
2024/01/15 01:34:51;;;;;;;37.17;21.83;;;;;;;;;;5069567;28;20530;-79
2024/01/15 01:37:17;;;;;;;36.20;21.77;;;;;;;;;;5073927;28;20103;-79
2024/01/15 01:39:44;;;;;;;38.08;21.38;;;;;;;;;;5069713;28;20141;-79
2024/01/15 01:42:10;;;;;;;39.30;22.38;;;;;;;;;;5074399;28;20032;-79
2024/01/15 01:44:36;;;;;;;37.20;22.02;;;;;;;;;;5083546;28;20040;-79
2024/01/15 01:47:03;;;;;;;37.70;21.58;;;;;;;;;;5088634;28;20103;-79
2024/01/15 01:49:29;;;;;;;39.97;22.77;;;;;;;;;;5074060;28;20035;-79
2024/01/15 01:51:58;;;;;;;38.60;21.60;;;;;;;;;;5081900;28;20040;-79
2024/01/15 01:54:26;;;;;;;37.65;21.25;;;;;;;;;;5072069;28;20119;-79
2024/01/15 01:56:52;;;;;;;38.38;21.58;;;;;;;;;;5080605;28;20023;-80
2024/01/15 01:59:18;;;;;;;38.30;21.45;;;;;;;;;;5090920;28;20031;-81
2024/01/15 02:01:44;;;;;;;38.15;20.85;;;;;;;;;;5083240;28;20036;-80
2024/01/15 02:04:11;;;;;;;35.88;20.95;;;;;;;;;;5051951;28;20033;-81
2024/01/15 02:06:37;;;;;;;39.72;21.13;;;;;;;;;;5051448;28;20056;-80
2024/01/15 02:09:05;;;;;;;37.03;21.27;;;;;;;;;;5051711;28;20457;-79
2024/01/15 02:11:31;;;;;;;36.25;20.75;;;;;;;;;;5051581;28;20039;-79
2024/01/15 02:13:57;;;;;;;38.70;20.38;;;;;;;;;;5051652;28;20485;-79
2024/01/15 02:16:23;;;;;;;39.47;21.52;;;;;;;;;;5051493;28;20025;-79
2024/01/15 02:18:49;;;;;;;38.20;21.00;;;;;;;;;;5052088;28;20024;-79
2024/01/15 02:21:16;;;;;;;34.35;19.73;;;;;;;;;;5052092;28;20025;-80
2024/01/15 02:23:42;;;;;;;34.88;19.70;;;;;;;;;;5077821;28;20065;-80
2024/01/15 02:26:08;;;;;;;30.85;18.30;;;;;;;;;;5071141;28;20318;-80
2024/01/15 02:28:34;;;;;;;32.22;19.63;;;;;;;;;;5070462;28;20029;-80
2024/01/15 02:31:00;;;;;;;34.47;18.45;;;;;;;;;;5071043;28;20032;-80
2024/01/15 02:33:26;;;;;;;36.03;18.30;;;;;;;;;;5071418;28;20502;-80
2024/01/15 02:35:52;;;;;;;30.63;17.90;;;;;;;;;;5070055;28;20024;-80
2024/01/15 02:38:18;;;;;;;32.78;17.38;;;;;;;;;;5072193;28;20025;-81
2024/01/15 02:40:45;;;;;;;33.42;18.23;;;;;;;;;;5072053;28;20104;-79
2024/01/15 02:43:11;;;;;;;30.02;17.75;;;;;;;;;;5071536;28;20025;-79
2024/01/15 02:45:38;;;;;;;30.90;17.08;;;;;;;;;;5071782;28;20060;-80
2024/01/15 02:48:04;;;;;;;31.90;16.88;;;;;;;;;;5071469;28;20059;-81
2024/01/15 02:50:30;;;;;;;32.17;18.25;;;;;;;;;;5071201;28;20078;-81
2024/01/15 02:52:56;;;;;;;30.50;16.73;;;;;;;;;;5070479;28;20032;-79
2024/01/15 02:55:22;;;;;;;31.33;17.45;;;;;;;;;;5071053;28;20068;-79
2024/01/15 02:57:47;;;;;;;32.65;17.38;;;;;;;;;;5071470;28;20056;-79
2024/01/15 03:00:14;;;;;;;29.00;17.23;;;;;;;;;;5069940;28;20400;-80
2024/01/15 03:02:43;;;;;;;28.08;16.38;;;;;;;;;;5071442;28;20024;-80
2024/01/15 03:05:09;;;;;;;30.08;16.80;;;;;;;;;;5071693;28;20025;-78
2024/01/15 03:07:35;;;;;;;29.30;16.58;;;;;;;;;;5070796;28;20056;-80
2024/01/15 03:10:01;;;;;;;32.08;16.17;;;;;;;;;;5071844;28;20079;-80
2024/01/15 03:12:27;;;;;;;29.98;16.60;;;;;;;;;;5071624;28;20093;-80
2024/01/15 03:14:53;;;;;;;29.65;17.17;;;;;;;;;;5072163;28;20111;-78
2024/01/15 03:17:19;;;;;;;28.40;17.45;;;;;;;;;;5070866;28;20036;-78
2024/01/15 03:19:45;;;;;;;29.23;17.20;;;;;;;;;;5070882;28;20477;-79
2024/01/15 03:22:11;;;;;;;33.05;16.67;;;;;;;;;;5070796;28;20075;-79
2024/01/15 03:24:37;;;;;;;28.02;16.75;;;;;;;;;;5070872;28;20025;-79
2024/01/15 03:27:03;;;;;;;28.00;16.23;;;;;;;;;;5070565;28;20031;-79
2024/01/15 03:29:29;;;;;;;24.45;15.20;;;;;;;;;;5070382;28;20040;-80
2024/01/15 03:31:55;;;;;;;32.90;16.73;;;;;;;;;;5069247;28;20032;-79
2024/01/15 03:34:21;;;;;;;26.98;16.30;;;;;;;;;;5071327;28;20105;-78
2024/01/15 03:36:47;;;;;;;28.30;15.25;;;;;;;;;;5071301;28;20150;-79
2024/01/15 03:39:13;;;;;;;27.50;14.80;;;;;;;;;;5070276;28;20079;-79
2024/01/15 03:41:39;;;;;;;26.55;15.10;;;;;;;;;;5070573;28;20020;-79
2024/01/15 03:44:05;;;;;;;27.17;14.82;;;;;;;;;;5071114;28;20036;-79
2024/01/15 03:46:31;;;;;;;27.10;15.55;;;;;;;;;;5090251;28;20119;-79
2024/01/15 03:48:57;;;;;;;30.90;15.75;;;;;;;;;;5085761;28;20070;-79
2024/01/15 03:51:23;;;;;;;24.48;14.63;;;;;;;;;;5069875;28;20036;-79
2024/01/15 03:53:49;;;;;;;27.33;14.85;;;;;;;;;;5071246;28;20060;-79
2024/01/15 03:56:15;;;;;;;22.63;14.02;;;;;;;;;;5069129;28;20037;-79
2024/01/15 03:58:41;;;;;;;26.23;15.48;;;;;;;;;;5069629;28;20020;-79
2024/01/15 04:01:10;;;;;;;25.27;15.50;;;;;;;;;;5061476;28;20548;-80
2024/01/15 04:03:36;;;;;;;26.80;14.70;;;;;;;;;;5049562;28;20057;-80
2024/01/15 04:06:03;;;;;;;24.30;13.98;;;;;;;;;;5049212;28;20392;-81
2024/01/15 04:08:29;;;;;;;22.58;13.75;;;;;;;;;;5048860;28;20056;-80
2024/01/15 04:10:55;;;;;;;27.85;14.38;;;;;;;;;;5049559;28;20036;-80
2024/01/15 04:13:21;;;;;;;23.27;13.82;;;;;;;;;;5070336;28;20028;-80
2024/01/15 04:15:47;;;;;;;24.20;14.65;;;;;;;;;;5068965;28;20027;-82
2024/01/15 04:18:13;;;;;;;22.63;13.77;;;;;;;;;;5070107;28;20075;-82
2024/01/15 04:20:39;;;;;;;21.10;12.90;;;;;;;;;;5069678;28;20028;-82
2024/01/15 04:23:05;;;;;;;25.35;14.10;;;;;;;;;;5067797;28;20021;-82
2024/01/15 04:25:32;;;;;;;21.98;13.55;;;;;;;;;;5069977;28;20479;-81
2024/01/15 04:27:58;;;;;;;25.95;13.77;;;;;;;;;;5069184;28;20047;-81
2024/01/15 04:30:24;;;;;;;22.70;13.07;;;;;;;;;;5068807;28;20487;-81
2024/01/15 04:32:51;;;;;;;25.88;14.25;;;;;;;;;;5069606;28;20075;-80
2024/01/15 04:35:17;;;;;;;21.42;12.95;;;;;;;;;;5060357;28;20017;-80
2024/01/15 04:37:43;;;;;;;24.65;13.63;;;;;;;;;;5069096;28;20028;-80
2024/01/15 04:40:09;;;;;;;22.38;12.75;;;;;;;;;;5070732;28;20052;-80
2024/01/15 04:42:35;;;;;;;24.25;13.15;;;;;;;;;;5070052;28;20427;-79
2024/01/15 04:45:01;;;;;;;20.77;12.35;;;;;;;;;;5069533;28;20025;-80
2024/01/15 04:47:27;;;;;;;22.30;13.00;;;;;;;;;;5069511;28;20396;-81
2024/01/15 04:49:53;;;;;;;27.75;12.75;;;;;;;;;;5069826;28;20472;-80
2024/01/15 04:52:19;;;;;;;23.48;12.55;;;;;;;;;;5059418;28;20057;-80
2024/01/15 04:54:45;;;;;;;21.73;13.40;;;;;;;;;;5050241;28;20773;-79
2024/01/15 04:57:11;;;;;;;19.52;11.88;;;;;;;;;;5069232;28;20099;-80
2024/01/15 04:59:37;;;;;;;20.45;12.15;;;;;;;;;;5069224;28;20100;-80
2024/01/15 05:02:03;;;;;;;20.48;12.55;;;;;;;;;;5072410;28;20155;-80
2024/01/15 05:04:30;;;;;;;19.70;12.48;;;;;;;;;;5074031;28;20020;-80
2024/01/15 05:06:56;;;;;;;20.90;11.93;;;;;;;;;;5069518;28;20094;-80
2024/01/15 05:09:22;;;;;;;25.00;12.63;;;;;;;;;;5059593;28;20025;-80
2024/01/15 05:11:48;;;;;;;20.55;11.43;;;;;;;;;;5048319;28;20059;-80
2024/01/15 05:14:14;;;;;;;19.88;11.57;;;;;;;;;;5049140;28;20477;-80
2024/01/15 05:16:40;;;;;;;16.95;10.93;;;;;;;;;;5052772;28;20028;-80
2024/01/15 05:19:08;;;;;;;20.08;11.63;;;;;;;;;;5053024;28;20472;-80
2024/01/15 05:21:34;;;;;;;17.50;11.27;;;;;;;;;;5068328;28;20090;-80
2024/01/15 05:24:00;;;;;;;18.80;10.90;;;;;;;;;;5068144;28;20036;-80
2024/01/15 05:26:27;;;;;;;18.15;10.73;;;;;;;;;;5072825;28;20025;-81
2024/01/15 05:28:53;;;;;;;17.52;10.75;;;;;;;;;;5073859;28;20040;-80
2024/01/15 05:31:19;;;;;;;16.33;10.18;;;;;;;;;;5072885;28;20078;-80
2024/01/15 05:33:45;;;;;;;18.92;10.27;;;;;;;;;;5073140;28;20078;-80
2024/01/15 05:36:11;;;;;;;16.77;10.30;;;;;;;;;;5073017;28;20051;-79
2024/01/15 05:38:37;;;;;;;18.48;10.40;;;;;;;;;;5073086;28;20065;-80
2024/01/15 05:41:03;;;;;;;17.38;10.30;;;;;;;;;;5072929;28;20393;-80
2024/01/15 05:43:29;;;;;;;15.38;9.75;;;;;;;;;;5070440;28;20028;-80
2024/01/15 05:45:55;;;;;;;16.60;10.65;;;;;;;;;;5073095;28;20020;-80
2024/01/15 05:48:21;;;;;;;19.20;10.30;;;;;;;;;;5072697;28;20033;-80
2024/01/15 05:50:47;;;;;;;16.42;10.45;;;;;;;;;;5072645;28;20029;-80
2024/01/15 05:53:13;;;;;;;18.30;10.65;;;;;;;;;;5070801;28;20036;-81
2024/01/15 05:55:39;;;;;;;20.13;11.35;;;;;;;;;;5070734;28;20020;-79
2024/01/15 05:58:05;;;;;;;20.35;11.23;;;;;;;;;;5075893;28;20104;-79
2024/01/15 06:00:32;;;;;;;16.42;10.07;;;;;;;;;;5071586;28;20019;-80
2024/01/15 06:02:59;;;;;;;16.15;9.82;;;;;;;;;;5072760;28;20028;-80
2024/01/15 06:05:25;;;;;;;17.60;10.60;;;;;;;;;;5072751;28;20032;-80
2024/01/15 06:07:51;;;;;;;17.10;10.27;;;;;;;;;;5071695;28;20024;-80
2024/01/15 06:10:17;;;;;;;15.40;10.00;;;;;;;;;;5071826;28;20435;-80
2024/01/15 06:12:44;;;;;;;17.20;10.57;;;;;;;;;;5071764;28;20047;-80
2024/01/15 06:15:10;;;;;;;16.98;10.43;;;;;;;;;;5071792;28;20069;-80
2024/01/15 06:17:36;;;;;;;17.90;10.75;;;;;;;;;;5071759;28;20051;-80
2024/01/15 06:20:03;;;;;;;18.77;11.32;;;;;;;;;;5071613;28;20383;-80
2024/01/15 06:22:29;;;;;;;15.88;10.93;;;;;;;;;;5072035;28;20100;-80
2024/01/15 06:24:55;;;;;;;16.10;9.85;;;;;;;;;;5071652;28;20107;-79
2024/01/15 06:27:21;;;;;;;17.25;9.52;;;;;;;;;;5070334;28;20499;-80
2024/01/15 06:29:47;;;;;;;16.10;10.18;;;;;;;;;;5071418;28;20129;-79
2024/01/15 06:32:13;;;;;;;19.85;11.60;;;;;;;;;;5071475;28;20464;-79
2024/01/15 06:34:39;;;;;;;18.02;10.98;;;;;;;;;;5071478;28;20025;-79
2024/01/15 06:37:05;;;;;;;17.30;10.60;;;;;;;;;;5071314;28;20377;-80
2024/01/15 06:39:32;;;;;;;17.45;10.63;;;;;;;;;;5071938;28;20027;-79
2024/01/15 06:41:58;;;;;;;19.83;11.00;;;;;;;;;;5072177;28;20056;-80
2024/01/15 06:44:24;;;;;;;20.90;11.70;;;;;;;;;;5071097;28;20028;-80
2024/01/15 06:46:51;;;;;;;19.73;11.75;;;;;;;;;;5071094;28;20033;-80
2024/01/15 06:49:17;;;;;;;18.52;11.48;;;;;;;;;;5070793;28;20020;-80
2024/01/15 06:51:43;;;;;;;18.70;10.82;;;;;;;;;;5070571;28;21862;-80
2024/01/15 06:54:09;;;;;;;19.88;11.35;;;;;;;;;;5070914;28;20016;-79
2024/01/15 06:56:35;;;;;;;18.85;11.50;;;;;;;;;;5070701;28;20029;-80
2024/01/15 06:59:02;;;;;;;22.83;12.65;;;;;;;;;;5071422;28;20031;-80
2024/01/15 07:01:28;;;;;;;21.40;12.20;;;;;;;;;;5071575;28;20499;-80
2024/01/15 07:03:54;;;;;;;17.60;11.70;;;;;;;;;;5070166;28;20024;-79
2024/01/15 07:06:20;;;;;;;20.67;13.13;;;;;;;;;;5070229;28;20032;-80
2024/01/15 07:08:46;;;;;;;22.38;13.52;;;;;;;;;;5070412;28;20051;-81
2024/01/15 07:11:12;;;;;;;21.45;12.68;;;;;;;;;;5069821;28;20075;-79
2024/01/15 07:13:38;;;;;;;23.63;13.45;;;;;;;;;;5051790;28;20029;-79
2024/01/15 07:16:04;;;;;;;25.05;13.95;;;;;;;;;;5056417;28;20055;-80
2024/01/15 07:18:30;;;;;;;25.90;14.25;;;;;;;;;;5056300;28;20044;-81
2024/01/15 07:20:56;;;;;;;24.10;13.07;;;;;;;;;;5082141;28;20107;-80
2024/01/15 07:23:22;;;;;;;24.02;13.75;;;;;;;;;;5069063;28;20024;-81
2024/01/15 07:25:48;;;;;;;22.98;13.55;;;;;;;;;;5068785;28;20032;-81
2024/01/15 07:28:14;;;;;;;21.55;13.43;;;;;;;;;;5068567;28;20029;-80
2024/01/15 07:30:40;;;;;;;21.95;12.45;;;;;;;;;;5068729;28;20027;-80
2024/01/15 07:33:06;;;;;;;24.88;12.68;;;;;;;;;;5068776;28;20043;-81
2024/01/15 07:35:32;;;;;;;22.10;13.60;;;;;;;;;;5069590;28;20021;-80
2024/01/15 07:37:58;;;;;;;20.98;12.77;;;;;;;;;;5068681;28;20025;-81
2024/01/15 07:40:24;;;;;;;22.27;13.05;;;;;;;;;;5068529;28;20024;-80
2024/01/15 07:42:51;;;;;;;25.00;13.48;;;;;;;;;;5068158;28;20032;-81
2024/01/15 07:45:17;;;;;;;23.20;12.77;;;;;;;;;;5063774;28;20032;-80
2024/01/15 07:47:43;;;;;;;20.02;11.98;;;;;;;;;;5069125;28;20024;-80
2024/01/15 07:50:09;;;;;;;21.15;12.07;;;;;;;;;;5069022;28;20499;-80
2024/01/15 07:52:35;;;;;;;21.65;12.68;;;;;;;;;;5069836;28;20040;-80
2024/01/15 07:55:03;;;;;;;20.48;12.38;;;;;;;;;;5070138;28;20044;-80
2024/01/15 07:57:29;;;;;;;17.60;11.68;;;;;;;;;;5063722;28;20025;-80
2024/01/15 07:59:55;;;;;;;20.55;11.63;;;;;;;;;;5067826;28;20224;-81
2024/01/15 08:02:21;;;;;;;21.30;12.13;;;;;;;;;;5069244;28;20099;-80
2024/01/15 08:04:47;;;;;;;23.92;12.90;;;;;;;;;;5069017;28;20047;-80
2024/01/15 08:07:13;;;;;;;22.75;12.65;;;;;;;;;;5068978;28;20078;-80
2024/01/15 08:09:39;;;;;;;23.60;13.55;;;;;;;;;;5067400;28;20031;-80
2024/01/15 08:12:06;;;;;;;25.85;13.32;;;;;;;;;;5068961;28;20032;-80
2024/01/15 08:14:32;;;;;;;21.05;12.15;;;;;;;;;;5069633;28;20020;-81
2024/01/15 08:16:58;;;;;;;20.58;11.40;;;;;;;;;;5067776;28;20480;-81
2024/01/15 08:19:24;;;;;;;18.20;11.27;;;;;;;;;;5068586;28;20403;-80
2024/01/15 08:21:50;;;;;;;19.90;11.40;;;;;;;;;;5068426;28;20036;-81
2024/01/15 08:24:16;;;;;;;18.80;11.95;;;;;;;;;;5068316;28;20016;-81
2024/01/15 08:26:42;;;;;;;18.50;11.70;;;;;;;;;;5068937;28;20035;-79
2024/01/15 08:29:08;;;;;;;20.77;12.18;;;;;;;;;;5068068;28;20020;-81
2024/01/15 08:31:34;;;;;;;23.55;13.23;;;;;;;;;;5069106;28;20028;-80
2024/01/15 08:34:01;;;;;;;19.45;12.27;;;;;;;;;;5060701;28;20405;-79
2024/01/15 08:36:29;;;;;;;23.75;13.45;;;;;;;;;;5068610;28;20027;-81
2024/01/15 08:38:55;;;;;;;19.90;12.15;;;;;;;;;;5068525;28;20027;-80
2024/01/15 08:41:21;;;;;;;20.13;12.10;;;;;;;;;;5068191;28;20395;-78
2024/01/15 08:43:47;;;;;;;21.38;12.10;;;;;;;;;;5066729;28;20424;-82
2024/01/15 08:46:13;;;;;;;22.52;12.68;;;;;;;;;;5068748;28;20033;-81
2024/01/15 08:48:39;;;;;;;23.02;13.10;;;;;;;;;;5068570;28;20100;-79
2024/01/15 08:51:06;;;;;;;22.88;12.40;;;;;;;;;;5068535;28;20068;-81
2024/01/15 08:53:32;;;;;;;21.60;12.55;;;;;;;;;;5068361;28;20472;-79
2024/01/15 08:55:58;;;;;;;21.38;12.20;;;;;;;;;;5070090;28;20036;-80
2024/01/15 08:58:25;;;;;;;20.83;12.27;;;;;;;;;;5069273;28;20047;-81
2024/01/15 09:00:51;;;;;;;23.60;12.60;;;;;;;;;;5068732;28;20112;-81
2024/01/15 09:03:17;;;;;;;19.92;11.35;;;;;;;;;;5067112;28;20445;-80
2024/01/15 09:05:43;;;;;;;20.23;11.70;;;;;;;;;;5068453;28;20523;-80
2024/01/15 09:08:09;;;;;;;23.55;11.40;;;;;;;;;;5068446;28;20033;-79
2024/01/15 09:10:35;;;;;;;23.00;11.77;;;;;;;;;;5069283;28;20016;-80
2024/01/15 09:13:03;;;;;;;18.73;11.60;;;;;;;;;;5068595;28;20032;-79
2024/01/15 09:15:29;;;;;;;22.77;11.75;;;;;;;;;;5068188;28;20453;-78
2024/01/15 09:17:57;;;;;;;18.42;11.18;;;;;;;;;;5068591;28;20037;-78
2024/01/15 09:20:23;;;;;;;22.17;11.65;;;;;;;;;;5068354;28;20480;-78
2024/01/15 09:22:49;;;;;;;19.77;11.32;;;;;;;;;;5067984;28;20025;-79
2024/01/15 09:25:15;;;;;;;22.98;11.27;;;;;;;;;;5068397;28;20032;-79
2024/01/15 09:27:42;;;;;;;19.60;11.23;;;;;;;;;;5068291;28;20032;-79
2024/01/15 09:30:08;;;;;;;20.17;11.15;;;;;;;;;;5084933;28;20081;-80
2024/01/15 09:32:34;;;;;;;20.88;11.02;;;;;;;;;;5069067;28;20476;-79
2024/01/15 09:35:00;;;;;;;19.42;11.75;;;;;;;;;;5068192;28;20017;-79
2024/01/15 09:37:26;;;;;;;24.35;11.82;;;;;;;;;;5068325;28;20108;-78
2024/01/15 09:39:53;;;;;;;21.60;12.20;;;;;;;;;;5068288;28;20476;-79
2024/01/15 09:42:19;;;;;;;21.67;11.32;;;;;;;;;;5068113;28;20476;-78
2024/01/15 09:44:46;;;;;;;21.83;10.90;;;;;;;;;;5067915;28;20029;-78
2024/01/15 09:47:13;;;;;;;21.00;11.40;;;;;;;;;;5068090;28;20052;-79
2024/01/15 09:49:40;;;;;;;22.85;10.95;;;;;;;;;;5069080;28;20029;-79
2024/01/15 09:52:07;;;;;;;23.50;10.98;;;;;;;;;;5068815;28;20166;-80
2024/01/15 09:54:34;;;;;;;19.80;9.93;;;;;;;;;;5068341;28;20090;-80
2024/01/15 09:57:01;;;;;;;19.00;10.07;;;;;;;;;;5067931;28;20077;-79
2024/01/15 09:59:27;;;;;;;18.70;9.82;;;;;;;;;;5067901;28;20027;-79
2024/01/15 10:01:54;;;;;;;18.95;10.20;;;;;;;;;;5070031;28;20392;-78
2024/01/15 10:04:20;;;;;;;14.38;8.98;;;;;;;;;;5071545;28;20036;-78
2024/01/15 10:06:47;;;;;;;17.70;9.43;;;;;;;;;;5070356;28;20115;-79
2024/01/15 10:09:16;;;;;;;15.15;8.27;;;;;;;;;;5071575;28;20029;-78
2024/01/15 10:11:43;;;;;;;13.88;8.32;;;;;;;;;;5071396;28;20081;-78
2024/01/15 10:14:12;;;;;;;15.57;8.13;;;;;;;;;;5071171;28;20029;-78
2024/01/15 10:16:42;;;;;;;12.48;7.00;;;;;;;;;;5072197;28;20024;-78
2024/01/15 10:19:09;;;;;;;14.05;6.45;;;;;;;;;;5072339;28;20111;-78
2024/01/15 10:21:35;;;;;;;11.35;6.53;;;;;;;;;;5072134;28;20021;-79
2024/01/15 10:24:02;;;;;;;12.07;5.53;;;;;;;;;;5071527;28;20028;-79
2024/01/15 10:26:28;;;;;;;11.48;6.60;;;;;;;;;;5071189;28;20451;-79
2024/01/15 10:28:54;;;;;;;15.65;6.10;;;;;;;;;;5071199;28;20434;-79
2024/01/15 10:31:21;;;;;;;11.30;6.47;;;;;;;;;;5069909;28;20090;-80
2024/01/15 10:33:48;;;;;;;12.70;6.20;;;;;;;;;;5071321;28;20024;-78
2024/01/15 10:36:14;;;;;;;11.63;7.13;;;;;;;;;;5071149;28;20123;-78
2024/01/15 10:38:40;;;;;;;10.35;5.90;;;;;;;;;;5071101;28;20060;-78
2024/01/15 10:41:06;;;;;;;11.45;6.15;;;;;;;;;;5071793;28;20384;-78
2024/01/15 10:43:32;;;;;;;7.50;5.28;;;;;;;;;;5070849;28;20036;-78
2024/01/15 10:45:58;;;;;;;12.43;5.18;;;;;;;;;;5069032;28;20377;-78
2024/01/15 10:48:24;;;;;;;9.18;4.75;;;;;;;;;;5070965;28;20028;-78
2024/01/15 10:50:50;;;;;;;10.45;5.47;;;;;;;;;;5070876;28;20027;-79
2024/01/15 10:53:17;;;;;;;8.52;5.25;;;;;;;;;;5070427;28;20032;-79
2024/01/15 10:55:43;;;;;;;12.43;6.10;;;;;;;;;;5070739;28;20051;-79
2024/01/15 10:58:09;;;;;;;10.70;5.30;;;;;;;;;;5071325;28;20036;-78
2024/01/15 11:00:37;;;;;;;11.13;5.55;;;;;;;;;;5070296;28;20024;-79
2024/01/15 11:03:04;;;;;;;10.27;4.65;;;;;;;;;;5071118;28;20039;-79
2024/01/15 11:05:34;;;;;;;8.73;5.00;;;;;;;;;;5071087;28;20060;-80
2024/01/15 11:08:01;;;;;;;8.55;4.80;;;;;;;;;;5070312;28;20408;-81
2024/01/15 11:10:48;;;;;;;9.80;5.30;;;;;;;;;;5070521;28;20025;-80
2024/01/15 11:13:41;;;;;;;9.05;4.93;;;;;;;;;;5069627;28;20040;-79
2024/01/15 11:16:09;;;;;;;11.98;5.15;;;;;;;;;;5071176;28;20020;-80
2024/01/15 11:18:36;;;;;;;11.30;5.47;;;;;;;;;;5069664;28;20499;-80
2024/01/15 11:21:21;;;;;;;12.27;5.32;;;;;;;;;;5068954;28;20020;-79
2024/01/15 11:24:00;;;;;;;10.13;5.63;;;;;;;;;;5070401;28;20039;-80
2024/01/15 11:26:42;;;;;;;11.77;6.25;;;;;;;;;;5069940;28;20036;-80
2024/01/15 11:29:09;;;;;;;11.65;6.10;;;;;;;;;;5070594;28;20021;-81
2024/01/15 11:31:41;;;;;;;12.93;5.75;;;;;;;;;;5069633;28;20086;-79
2024/01/15 11:34:08;;;;;;;9.70;6.22;;;;;;;;;;5070833;28;20020;-79
2024/01/15 11:36:46;;;;;;;10.15;5.78;;;;;;;;;;5070045;28;20113;-81
2024/01/15 11:39:27;;;;;;;10.43;5.82;;;;;;;;;;5067587;28;20515;-81
2024/01/15 11:42:01;;;;;;;9.57;5.78;;;;;;;;;;5069704;28;20036;-82
2024/01/15 11:44:27;;;;;;;7.75;4.85;;;;;;;;;;5070052;28;20013;-80
2024/01/15 11:46:56;;;;;;;9.88;5.32;;;;;;;;;;5069826;28;20491;-79
2024/01/15 11:49:42;;;;;;;10.23;4.38;;;;;;;;;;5069730;28;20027;-80
2024/01/15 11:52:11;;;;;;;7.07;4.60;;;;;;;;;;5055558;28;20046;-79
2024/01/15 11:54:38;;;;;;;8.52;4.75;;;;;;;;;;5070445;28;20517;-78
2024/01/15 11:57:08;;;;;;;4.70;3.55;;;;;;;;;;5069039;28;20039;-79
2024/01/15 11:59:34;;;;;;;4.47;3.70;;;;;;;;;;5069658;28;20079;-79
2024/01/15 12:02:01;;;;;;;7.82;4.05;;;;;;;;;;5069371;28;20347;-79
2024/01/15 12:04:26;;;;;;;5.38;3.67;;;;;;;;;;5069188;28;20024;-78
2024/01/15 12:06:52;;;;;;;7.72;3.60;;;;;;;;;;5068893;28;20047;-78
2024/01/15 12:09:21;;;;;;;6.10;3.28;;;;;;;;;;5080489;28;20024;-79
2024/01/15 12:11:54;;;;;;;6.68;3.80;;;;;;;;;;5064464;28;20039;-80
2024/01/15 12:14:21;;;;;;;5.55;3.25;;;;;;;;;;5068896;28;20023;-79
2024/01/15 12:16:48;;;;;;;7.43;3.22;;;;;;;;;;5069082;28;20032;-79
2024/01/15 12:19:14;;;;;;;4.75;2.90;;;;;;;;;;5069020;28;20042;-80
2024/01/15 12:21:41;;;;;;;8.50;3.78;;;;;;;;;;5069780;28;20032;-79
2024/01/15 12:24:10;;;;;;;4.35;3.10;;;;;;;;;;5068732;28;20024;-80
2024/01/15 12:26:36;;;;;;;4.93;2.95;;;;;;;;;;5068459;28;20432;-78
2024/01/15 12:29:02;;;;;;;7.75;3.45;;;;;;;;;;5078362;28;20388;-79
2024/01/15 12:31:30;;;;;;;4.32;2.78;;;;;;;;;;5089110;28;20028;-80
2024/01/15 12:33:56;;;;;;;5.07;2.88;;;;;;;;;;5089074;28;20031;-79
2024/01/15 12:36:22;;;;;;;4.45;3.10;;;;;;;;;;5088897;28;20069;-79
2024/01/15 12:38:48;;;;;;;5.22;2.95;;;;;;;;;;5080033;28;20025;-79
2024/01/15 12:41:15;;;;;;;7.15;3.10;;;;;;;;;;5069035;28;20033;-79
2024/01/15 12:43:41;;;;;;;6.05;3.13;;;;;;;;;;5069509;28;20028;-80
2024/01/15 12:46:07;;;;;;;7.03;3.13;;;;;;;;;;5069010;28;20036;-81
2024/01/15 12:48:33;;;;;;;5.07;2.83;;;;;;;;;;5068924;28;20021;-80
2024/01/15 12:51:00;;;;;;;4.68;2.53;;;;;;;;;;5068662;28;20037;-79
2024/01/15 12:53:26;;;;;;;5.13;2.70;;;;;;;;;;5068820;28;20016;-81
2024/01/15 12:55:52;;;;;;;3.88;2.90;;;;;;;;;;5068418;28;20111;-79
2024/01/15 12:58:18;;;;;;;3.90;3.10;;;;;;;;;;5068390;28;20029;-79
2024/01/15 13:00:44;;;;;;;7.70;3.10;;;;;;;;;;5067228;28;20090;-79
2024/01/15 13:03:10;;;;;;;5.75;3.20;;;;;;;;;;5067954;28;20023;-81
2024/01/15 13:05:36;;;;;;;3.78;2.83;;;;;;;;;;5066995;28;20035;-79
2024/01/15 13:08:03;;;;;;;5.05;3.10;;;;;;;;;;5068840;28;20020;-79
2024/01/15 13:10:30;;;;;;;4.65;2.72;;;;;;;;;;5068642;28;20506;-80
2024/01/15 13:12:56;;;;;;;5.50;3.10;;;;;;;;;;5068359;28;20036;-79
2024/01/15 13:15:22;;;;;;;4.18;2.85;;;;;;;;;;5068668;28;20013;-80
2024/01/15 13:17:48;;;;;;;6.07;3.50;;;;;;;;;;5068703;28;20540;-79
2024/01/15 13:20:14;;;;;;;5.40;3.10;;;;;;;;;;5068958;28;20035;-80
2024/01/15 13:22:40;;;;;;;7.35;3.22;;;;;;;;;;5069141;28;20032;-81
2024/01/15 13:25:07;;;;;;;6.25;3.28;;;;;;;;;;5067218;28;20058;-79
2024/01/15 13:27:36;;;;;;;4.70;3.10;;;;;;;;;;5068344;28;20060;-80
2024/01/15 13:30:02;;;;;;;9.82;3.55;;;;;;;;;;5068248;28;20033;-80
2024/01/15 13:32:29;;;;;;;7.82;3.20;;;;;;;;;;5068200;28;20508;-82
2024/01/15 13:34:56;;;;;;;4.75;3.17;;;;;;;;;;5066666;28;20028;-79
2024/01/15 13:37:24;;;;;;;7.60;3.30;;;;;;;;;;5071590;28;20032;-79
2024/01/15 13:39:51;;;;;;;6.17;3.70;;;;;;;;;;5071734;28;20019;-80
2024/01/15 13:42:17;;;;;;;7.13;3.50;;;;;;;;;;5070845;28;20074;-79
2024/01/15 13:44:43;;;;;;;5.45;3.35;;;;;;;;;;5072811;28;20107;-80
2024/01/15 13:47:10;;;;;;;6.30;3.25;;;;;;;;;;5072222;28;20417;-79
2024/01/15 13:49:36;;;;;;;5.38;3.20;;;;;;;;;;5071965;28;20265;-79
2024/01/15 13:52:03;;;;;;;5.97;3.40;;;;;;;;;;5072092;28;20389;-80
2024/01/15 13:54:30;;;;;;;5.82;2.92;;;;;;;;;;5072092;28;20081;-80
2024/01/15 13:56:56;;;;;;;5.75;3.30;;;;;;;;;;5072036;28;20060;-81
2024/01/15 13:59:22;;;;;;;5.05;2.83;;;;;;;;;;5071710;28;20024;-81
2024/01/15 14:01:48;;;;;;;5.35;2.70;;;;;;;;;;5071771;28;20459;-82
2024/01/15 14:04:14;;;;;;;3.95;2.10;;;;;;;;;;5070752;28;20488;-81
2024/01/15 14:06:40;;;;;;;5.07;2.60;;;;;;;;;;5071848;28;20396;-80
2024/01/15 14:09:09;;;;;;;6.00;2.50;;;;;;;;;;5071816;28;20265;-82
2024/01/15 14:11:35;;;;;;;;;;;;;;;;;;5071693;28;20025;-80
2024/01/15 14:14:01;;;;;;;2.20;2.00;;;;;;;;;;5071471;28;20054;-79
2024/01/15 14:16:28;;;;;;;3.40;2.00;;;;;;;;;;5071271;28;20070;-81
2024/01/15 14:18:54;;;;;;;4.43;2.50;;;;;;;;;;5071485;28;20108;-80
2024/01/15 14:21:20;;;;;;;4.22;2.20;;;;;;;;;;5071543;28;20461;-81